Airfield :
LOGIN :

Register | Disclaimer

   EN    FR    IT 

 










Legend :    VFR   Marginal VFR   IFR   Intensive IFR   Very Intensive IFR
Visi :
Ceiling :
>= 8 km
>= 3000ft
5 to 8 km
1000 to 3000 ft
1500m to 5 km
500 to 1000 ft
800 to 1500m
200 to 500 ft
< 800m
< 200 ft
Symbols :   Thunderstorms  Fog  Heavy snow  Heavy precipitations  Wind > 20 kt
SIGMETs :     Misc.  Thunderstorms  Icing  Turbulence  Mountain Waves  Volcanic Ashes






- Airport Elevation : 1375 ft
- IATA code : SCV


LRSV - Suceava Stefan cel Mare

CURRENT METAR :
  • 200500Z 28007KT 9999 SCT014 10/08 Q1012

EXPIRED METARs :
  • 200430Z 30006KT 9999 BKN010 10/08 Q1012
  • 200400Z 29007KT 9999 BKN010 09/08 Q1012
  • 200330Z 28005KT 9999 FEW011 10/08 Q1012
  • 200300Z 30005KT CAVOK 10/08 Q1012
  • 200230Z 28005KT CAVOK 10/08 Q1012

TAF TAF LRSV
Valid from the 20 at 03:00 until the 20 at 12:00 UTC


200200Z 2003/2012 30007KT CAVOK
PROB30
TEMPO 2003/2005 5000 BR OVC015



MET'MAP, your aeronautical weather chart ! - Copyright ORBIFLY December 2007 - Disclaimer

ORBIFLY MET'MAP TEAM :

Programming & Development : Alexandra Zaïnal
Concept & original design : Baudouin d'Aumeries
Assistance for programming : Marc-Olivier Méhu
Technical & hardware support : Manuel Goepfert

Contact : metmap@orbifly.com




SOURCES & CREDITS :

   NOAA